Weather at RAAF Base Richmond

Public forecast

Using degrees Celsius for public forecast. Weather courtesy of forecast.io.

Current aviation weather report (METAR) for RAAF Base Richmond

Retrieved 2020/10/25 03:30 UTC (18 minutes ago):

YSRI 250330Z AUTO 15006KT 9999 // SCT020 OVC028 14/12 Q1014

Aviation forecast (TAF) for RAAF Base Richmond

Retrieved 2020-10-25 00:36 UTC (3 hours ago):

TAF YSRI 242306Z 2500/2600 19008KT 9999 -SHRA -DZ SCT010 BKN025 FM250200 18014KT 9999 -SHRA -DZ BKN012 BKN020 INTER 2500/2508 3000 SHRA BKN008 TEMPO 2508/2600 3000 SHRA -DZ BKN005